Time;durP1;ratioP1;P1;durP2;ratioP2;P2;SDS_P1;SDS_P2;PMS_P1;PMS_P2;Temp;Humidity;BMP_temperature;BMP_pressure;BME280_temperature;BME280_humidity;BME280_pressure;Samples;Min_cycle;Max_cycle;Signal;HPM_P1;HPM_P2
2023/03/27 00:02:14;;;;;;;9.10;3.13;;;;;;;;;;5077152;28;20950;-67
2023/03/27 00:04:41;;;;;;;12.20;2.13;;;;;;;;;;5068803;28;20516;-66
2023/03/27 00:07:08;;;;;;;6.83;2.33;;;;;;;;;;5073105;28;20515;-67
2023/03/27 00:09:36;;;;;;;8.57;2.67;;;;;;;;;;5065763;28;20892;-67
2023/03/27 00:12:04;;;;;;;6.63;1.53;;;;;;;;;;5069874;28;20522;-67
2023/03/27 00:14:33;;;;;;;3.97;1.70;;;;;;;;;;5077937;28;20517;-67
2023/03/27 00:16:59;;;;;;;9.10;2.40;;;;;;;;;;5070589;28;20525;-67
2023/03/27 00:19:26;;;;;;;9.60;2.53;;;;;;;;;;5069037;28;20493;-67
2023/03/27 00:21:53;;;;;;;7.43;1.83;;;;;;;;;;5069104;28;20481;-66
2023/03/27 00:24:21;;;;;;;9.33;2.03;;;;;;;;;;5079395;28;20488;-67
2023/03/27 00:26:47;;;;;;;5.87;2.20;;;;;;;;;;5063221;28;20854;-67
2023/03/27 00:29:13;;;;;;;15.53;2.10;;;;;;;;;;5062317;28;20569;-68
2023/03/27 00:31:41;;;;;;;6.23;2.27;;;;;;;;;;5059726;28;20564;-67
2023/03/27 00:34:08;;;;;;;10.53;2.00;;;;;;;;;;5061603;28;20489;-67
2023/03/27 00:36:34;;;;;;;11.40;2.00;;;;;;;;;;5060907;28;20485;-67
2023/03/27 00:39:00;;;;;;;8.10;1.97;;;;;;;;;;5061290;28;20508;-67
2023/03/27 00:41:27;;;;;;;7.20;2.40;;;;;;;;;;5059238;28;20508;-68
2023/03/27 00:43:55;;;;;;;5.23;2.00;;;;;;;;;;5061491;28;20445;-67
2023/03/27 00:46:27;;;;;;;10.20;2.20;;;;;;;;;;5059915;28;20564;-68
2023/03/27 00:48:55;;;;;;;4.33;1.70;;;;;;;;;;5062452;28;20968;-67
2023/03/27 00:51:23;;;;;;;8.23;2.30;;;;;;;;;;5060823;28;21032;-67
2023/03/27 00:53:51;;;;;;;10.73;2.40;;;;;;;;;;5061694;28;20484;-66
2023/03/27 00:56:18;;;;;;;10.13;1.90;;;;;;;;;;5060549;28;21022;-66
2023/03/27 00:58:46;;;;;;;4.77;1.50;;;;;;;;;;5061158;28;20457;-67
2023/03/27 01:01:14;;;;;;;10.40;2.50;;;;;;;;;;5060367;28;20501;-66
2023/03/27 01:03:41;;;;;;;12.33;2.57;;;;;;;;;;5081681;28;20483;-66
2023/03/27 01:06:09;;;;;;;6.57;2.27;;;;;;;;;;5080496;28;20515;-66
2023/03/27 01:08:36;;;;;;;6.83;2.00;;;;;;;;;;5081002;28;20520;-67
2023/03/27 01:11:10;;;;;;;8.57;2.60;;;;;;;;;;5079787;28;20578;-67
2023/03/27 01:13:50;;;;;;;7.03;1.70;;;;;;;;;;5078837;28;20463;-66
2023/03/27 01:16:19;;;;;;;7.30;2.57;;;;;;;;;;5079618;28;20559;-67
2023/03/27 01:18:53;;;;;;;3.90;1.80;;;;;;;;;;5081507;28;20452;-67
2023/03/27 01:21:43;;;;;;;5.00;2.47;;;;;;;;;;5079149;28;20476;-66
2023/03/27 01:24:27;;;;;;;4.40;1.63;;;;;;;;;;5075296;28;20517;-66
2023/03/27 01:27:04;;;;;;;14.30;2.37;;;;;;;;;;5079408;28;20495;-66
2023/03/27 01:29:38;;;;;;;9.07;2.23;;;;;;;;;;5080565;28;20476;-66
2023/03/27 01:32:13;;;;;;;8.27;2.90;;;;;;;;;;5079925;28;20506;-67
2023/03/27 01:34:54;;;;;;;12.27;2.57;;;;;;;;;;5080625;28;21026;-67
2023/03/27 01:37:27;;;;;;;9.23;2.20;;;;;;;;;;5058999;28;20491;-66
2023/03/27 01:40:00;;;;;;;4.90;1.87;;;;;;;;;;5079394;28;20488;-66
2023/03/27 01:42:31;;;;;;;6.90;1.90;;;;;;;;;;5076818;28;20523;-67
2023/03/27 01:45:01;;;;;;;15.10;3.27;;;;;;;;;;5078090;28;20440;-67
2023/03/27 01:47:38;;;;;;;10.23;2.30;;;;;;;;;;5077636;28;21100;-67
2023/03/27 01:50:08;;;;;;;5.33;2.30;;;;;;;;;;5078450;28;20543;-66
2023/03/27 01:52:36;;;;;;;12.70;2.50;;;;;;;;;;5078527;28;20468;-67
2023/03/27 01:55:08;;;;;;;7.60;2.30;;;;;;;;;;5079222;28;20475;-67
2023/03/27 01:57:37;;;;;;;9.60;2.60;;;;;;;;;;5078000;28;20460;-66
2023/03/27 02:00:11;;;;;;;5.03;1.13;;;;;;;;;;5076907;28;20492;-66
2023/03/27 02:02:39;;;;;;;5.23;1.70;;;;;;;;;;5076278;28;20502;-66
2023/03/27 02:05:09;;;;;;;5.00;1.87;;;;;;;;;;5078348;28;20528;-66
2023/03/27 02:07:38;;;;;;;6.90;1.77;;;;;;;;;;5078099;28;20472;-66
2023/03/27 02:10:08;;;;;;;9.13;2.90;;;;;;;;;;5078747;28;20536;-66
2023/03/27 02:12:36;;;;;;;12.00;2.13;;;;;;;;;;5078388;28;20487;-66
2023/03/27 02:15:06;;;;;;;15.90;2.60;;;;;;;;;;5079476;28;20489;-66
2023/03/27 02:17:33;;;;;;;8.17;2.70;;;;;;;;;;5079451;28;20535;-66
2023/03/27 02:20:08;;;;;;;4.40;2.10;;;;;;;;;;5080580;28;20480;-66
2023/03/27 02:22:35;;;;;;;14.70;2.63;;;;;;;;;;5079389;28;21035;-66
2023/03/27 02:25:01;;;;;;;9.03;2.20;;;;;;;;;;5080637;28;20927;-65
2023/03/27 02:27:35;;;;;;;4.33;1.93;;;;;;;;;;5079691;28;20500;-66
2023/03/27 02:30:05;;;;;;;7.47;2.50;;;;;;;;;;5080062;28;20453;-65
2023/03/27 02:32:37;;;;;;;6.20;2.30;;;;;;;;;;5079594;28;20488;-66
2023/03/27 02:35:12;;;;;;;8.37;2.20;;;;;;;;;;5079475;28;20475;-66
2023/03/27 02:37:42;;;;;;;4.77;1.83;;;;;;;;;;5079735;28;20456;-66
2023/03/27 02:40:13;;;;;;;11.70;3.40;;;;;;;;;;5078972;28;20494;-66
2023/03/27 02:42:44;;;;;;;10.43;2.20;;;;;;;;;;5076436;28;20516;-65
2023/03/27 02:45:16;;;;;;;7.10;2.37;;;;;;;;;;5079115;28;20898;-65
2023/03/27 02:47:45;;;;;;;5.13;1.67;;;;;;;;;;5079859;28;20480;-66
2023/03/27 02:50:14;;;;;;;4.40;2.03;;;;;;;;;;5079265;28;20819;-66
2023/03/27 02:52:42;;;;;;;9.67;2.47;;;;;;;;;;5080543;28;20475;-65
2023/03/27 02:55:11;;;;;;;12.00;2.80;;;;;;;;;;5079772;28;20444;-65
2023/03/27 02:57:38;;;;;;;4.30;1.93;;;;;;;;;;5080033;28;20566;-66
2023/03/27 03:00:24;;;;;;;6.93;2.10;;;;;;;;;;5079383;28;20496;-66
2023/03/27 03:02:52;;;;;;;3.60;2.20;;;;;;;;;;5079138;28;20514;-65
2023/03/27 03:05:20;;;;;;;10.50;2.73;;;;;;;;;;5079660;28;20520;-66
2023/03/27 03:07:47;;;;;;;7.30;2.40;;;;;;;;;;5079890;28;20471;-66
2023/03/27 03:10:14;;;;;;;9.40;1.80;;;;;;;;;;5078769;28;20472;-67
2023/03/27 03:12:41;;;;;;;8.63;2.60;;;;;;;;;;5081706;28;20452;-67
2023/03/27 03:15:10;;;;;;;7.77;2.80;;;;;;;;;;5082290;28;20560;-66
2023/03/27 03:17:36;;;;;;;7.23;1.93;;;;;;;;;;5075848;28;20550;-66
2023/03/27 03:20:04;;;;;;;12.47;2.77;;;;;;;;;;5083864;28;20476;-65
2023/03/27 03:22:31;;;;;;;7.70;2.43;;;;;;;;;;5082934;28;20487;-66
2023/03/27 03:24:57;;;;;;;7.87;2.43;;;;;;;;;;5083319;28;20460;-65
2023/03/27 03:27:23;;;;;;;6.87;2.17;;;;;;;;;;5082275;28;20499;-65
2023/03/27 03:29:51;;;;;;;7.00;2.90;;;;;;;;;;5082988;28;20472;-66
2023/03/27 03:32:19;;;;;;;3.50;1.60;;;;;;;;;;5081373;28;20533;-66
2023/03/27 03:34:46;;;;;;;7.03;2.10;;;;;;;;;;5083257;28;20517;-66
2023/03/27 03:37:12;;;;;;;14.57;2.40;;;;;;;;;;5082475;28;20487;-66
2023/03/27 03:39:39;;;;;;;8.00;2.10;;;;;;;;;;5082797;28;20490;-66
2023/03/27 03:42:05;;;;;;;6.70;2.60;;;;;;;;;;5082402;28;20542;-66
2023/03/27 03:44:33;;;;;;;14.73;3.10;;;;;;;;;;5083048;28;20540;-66
2023/03/27 03:46:59;;;;;;;4.73;2.30;;;;;;;;;;5081198;28;20472;-66
2023/03/27 03:49:27;;;;;;;11.47;2.90;;;;;;;;;;5083335;28;20471;-66
2023/03/27 03:51:53;;;;;;;11.03;1.93;;;;;;;;;;5082735;28;20523;-66
2023/03/27 03:54:20;;;;;;;8.33;2.70;;;;;;;;;;5082814;28;20491;-65
2023/03/27 03:56:47;;;;;;;6.57;2.20;;;;;;;;;;5081058;28;20514;-65
2023/03/27 03:59:15;;;;;;;5.47;2.33;;;;;;;;;;5082854;28;20460;-65
2023/03/27 04:01:41;;;;;;;6.53;3.00;;;;;;;;;;5081266;28;20530;-65
2023/03/27 04:04:08;;;;;;;11.87;2.73;;;;;;;;;;5082278;28;20456;-66
2023/03/27 04:06:36;;;;;;;9.23;2.97;;;;;;;;;;5068728;28;20494;-66
2023/03/27 04:09:03;;;;;;;7.77;2.10;;;;;;;;;;5082762;28;21195;-66
2023/03/27 04:11:29;;;;;;;13.30;2.70;;;;;;;;;;5081130;28;20527;-65
2023/03/27 04:13:56;;;;;;;9.07;2.43;;;;;;;;;;5081047;28;20532;-66
2023/03/27 04:16:22;;;;;;;6.83;2.50;;;;;;;;;;5077978;28;20488;-65
2023/03/27 04:18:53;;;;;;;6.20;2.53;;;;;;;;;;5082278;28;20448;-66
2023/03/27 04:21:19;;;;;;;8.70;2.67;;;;;;;;;;5081068;28;20488;-65
2023/03/27 04:23:48;;;;;;;8.37;3.23;;;;;;;;;;5082033;28;20561;-66
2023/03/27 04:26:14;;;;;;;8.67;3.43;;;;;;;;;;5077570;28;20606;-66
2023/03/27 04:28:41;;;;;;;10.20;3.20;;;;;;;;;;5081080;28;20524;-65
2023/03/27 04:31:09;;;;;;;12.77;3.20;;;;;;;;;;5078663;28;20554;-64
2023/03/27 04:33:38;;;;;;;17.13;3.40;;;;;;;;;;5074091;28;20448;-64
2023/03/27 04:36:05;;;;;;;5.97;2.03;;;;;;;;;;5087952;28;20483;-64
2023/03/27 04:38:32;;;;;;;6.73;2.70;;;;;;;;;;5080655;28;20478;-63
2023/03/27 04:41:00;;;;;;;6.13;2.70;;;;;;;;;;5079840;28;20555;-64
2023/03/27 04:43:27;;;;;;;7.33;2.23;;;;;;;;;;5082915;28;20447;-64
2023/03/27 04:45:53;;;;;;;13.43;3.00;;;;;;;;;;5079666;28;20480;-63
2023/03/27 04:48:20;;;;;;;8.20;2.20;;;;;;;;;;5078369;28;20497;-63
2023/03/27 04:50:48;;;;;;;10.50;2.80;;;;;;;;;;5082059;28;20586;-64
2023/03/27 04:53:15;;;;;;;8.70;2.63;;;;;;;;;;5082699;28;20447;-63
2023/03/27 04:55:42;;;;;;;10.83;3.10;;;;;;;;;;5080429;28;21067;-63
2023/03/27 04:58:11;;;;;;;6.70;3.53;;;;;;;;;;5081284;28;20809;-63
2023/03/27 05:00:37;;;;;;;8.53;3.03;;;;;;;;;;5079201;28;20460;-63
2023/03/27 05:03:04;;;;;;;12.07;2.70;;;;;;;;;;5081190;28;20708;-63
2023/03/27 05:05:30;;;;;;;7.23;3.90;;;;;;;;;;5079265;28;20813;-63
2023/03/27 05:07:57;;;;;;;12.67;2.97;;;;;;;;;;5080909;28;20456;-63
2023/03/27 05:10:24;;;;;;;7.47;3.17;;;;;;;;;;5080562;28;20933;-63
2023/03/27 05:12:51;;;;;;;7.97;2.47;;;;;;;;;;5081006;28;20451;-63
2023/03/27 05:15:20;;;;;;;8.93;2.53;;;;;;;;;;5079081;28;20533;-63
2023/03/27 05:17:51;;;;;;;9.80;3.20;;;;;;;;;;5079584;28;20491;-64
2023/03/27 05:20:18;;;;;;;7.67;2.30;;;;;;;;;;5075798;28;20476;-68
2023/03/27 05:22:45;;;;;;;16.40;4.17;;;;;;;;;;5078601;28;20458;-65
2023/03/27 05:25:12;;;;;;;14.13;3.47;;;;;;;;;;5075383;28;20488;-65
2023/03/27 05:27:43;;;;;;;10.33;3.27;;;;;;;;;;5079829;28;20457;-65
2023/03/27 05:30:10;;;;;;;8.73;3.43;;;;;;;;;;5078276;28;20582;-66
2023/03/27 05:32:38;;;;;;;17.33;3.20;;;;;;;;;;5083219;28;20537;-66
2023/03/27 05:35:05;;;;;;;9.23;2.60;;;;;;;;;;5077606;28;20452;-65
2023/03/27 05:37:32;;;;;;;22.17;5.37;;;;;;;;;;5079583;28;20850;-66
2023/03/27 05:39:59;;;;;;;9.67;2.97;;;;;;;;;;5083384;28;20459;-65
2023/03/27 05:42:25;;;;;;;7.23;2.73;;;;;;;;;;5080886;28;21084;-65
2023/03/27 05:44:51;;;;;;;8.73;3.03;;;;;;;;;;5073694;28;20525;-65
2023/03/27 05:47:19;;;;;;;9.50;2.90;;;;;;;;;;5074614;28;20472;-65
2023/03/27 05:49:47;;;;;;;10.53;3.43;;;;;;;;;;5078231;28;20448;-65
2023/03/27 05:52:14;;;;;;;10.37;3.20;;;;;;;;;;5073721;28;21042;-64
2023/03/27 05:54:41;;;;;;;9.87;2.77;;;;;;;;;;5079310;28;20458;-66
2023/03/27 05:57:07;;;;;;;12.40;2.20;;;;;;;;;;5078922;28;20472;-65
2023/03/27 05:59:34;;;;;;;7.33;2.70;;;;;;;;;;5078524;28;20451;-65
2023/03/27 06:02:01;;;;;;;7.10;2.93;;;;;;;;;;5076987;28;20504;-65
2023/03/27 06:04:29;;;;;;;7.40;2.37;;;;;;;;;;5079065;28;20452;-67
2023/03/27 06:06:57;;;;;;;8.93;2.50;;;;;;;;;;5077053;28;20484;-65
2023/03/27 06:09:24;;;;;;;9.03;2.57;;;;;;;;;;5078250;28;20479;-65
2023/03/27 06:11:50;;;;;;;18.63;3.10;;;;;;;;;;5078794;28;20560;-65
2023/03/27 06:14:16;;;;;;;7.60;2.80;;;;;;;;;;5078482;28;20476;-65
2023/03/27 06:16:43;;;;;;;6.10;2.20;;;;;;;;;;5077787;28;21075;-65
2023/03/27 06:19:09;;;;;;;6.63;2.43;;;;;;;;;;5079062;28;20444;-65
2023/03/27 06:21:36;;;;;;;7.07;3.47;;;;;;;;;;5077331;28;20500;-65
2023/03/27 06:24:04;;;;;;;8.63;2.70;;;;;;;;;;5079462;28;20463;-65
2023/03/27 06:26:31;;;;;;;11.43;3.20;;;;;;;;;;5078702;28;21012;-65
2023/03/27 06:28:57;;;;;;;4.00;2.20;;;;;;;;;;5078948;28;20448;-66
2023/03/27 06:31:24;;;;;;;9.03;2.60;;;;;;;;;;5076424;28;20563;-66
2023/03/27 06:33:50;;;;;;;7.63;2.97;;;;;;;;;;5081319;28;20448;-66
2023/03/27 06:36:17;;;;;;;8.37;3.07;;;;;;;;;;5077230;28;20538;-66
2023/03/27 06:38:44;;;;;;;5.23;2.43;;;;;;;;;;5078561;28;20473;-65
2023/03/27 06:41:12;;;;;;;9.50;2.20;;;;;;;;;;5076959;28;20476;-66
2023/03/27 06:43:38;;;;;;;12.43;3.20;;;;;;;;;;5077253;28;20459;-66
2023/03/27 06:46:05;;;;;;;8.30;2.60;;;;;;;;;;5076966;28;20926;-66
2023/03/27 06:48:32;;;;;;;4.57;2.40;;;;;;;;;;5082372;28;21011;-66
2023/03/27 06:50:58;;;;;;;6.70;2.40;;;;;;;;;;5081218;28;20496;-66
2023/03/27 06:53:25;;;;;;;4.63;1.70;;;;;;;;;;5079753;28;20538;-66
2023/03/27 06:55:51;;;;;;;4.50;2.03;;;;;;;;;;5082101;28;20471;-65
2023/03/27 06:58:19;;;;;;;6.27;1.30;;;;;;;;;;5079678;28;20499;-66
2023/03/27 07:00:47;;;;;;;10.10;2.13;;;;;;;;;;5078868;28;20486;-65
2023/03/27 07:03:14;;;;;;;6.10;1.67;;;;;;;;;;5082861;28;20468;-65
2023/03/27 07:05:41;;;;;;;4.70;2.20;;;;;;;;;;5080529;28;20479;-65
2023/03/27 07:08:09;;;;;;;7.43;2.47;;;;;;;;;;5082664;28;20464;-65
2023/03/27 07:10:36;;;;;;;5.93;2.10;;;;;;;;;;5081650;28;20554;-66
2023/03/27 07:13:02;;;;;;;6.60;2.07;;;;;;;;;;5081347;28;20444;-65
2023/03/27 07:15:30;;;;;;;6.33;2.37;;;;;;;;;;5081164;28;20494;-66
2023/03/27 07:17:57;;;;;;;7.53;2.50;;;;;;;;;;5082187;28;20513;-67
2023/03/27 07:20:26;;;;;;;6.57;2.07;;;;;;;;;;5080983;28;21043;-66
2023/03/27 07:22:53;;;;;;;5.33;2.20;;;;;;;;;;5076668;28;20451;-65
2023/03/27 07:25:20;;;;;;;4.37;1.60;;;;;;;;;;5081806;28;20467;-66
2023/03/27 07:27:47;;;;;;;6.87;1.70;;;;;;;;;;5082360;28;21139;-66
2023/03/27 07:30:14;;;;;;;5.23;1.73;;;;;;;;;;5080040;28;20452;-66
2023/03/27 07:32:43;;;;;;;4.13;1.33;;;;;;;;;;5081096;28;20463;-66
2023/03/27 07:35:10;;;;;;;4.83;1.63;;;;;;;;;;5076555;28;20459;-66
2023/03/27 07:37:37;;;;;;;7.40;2.10;;;;;;;;;;5081666;28;20491;-66
2023/03/27 07:40:05;;;;;;;6.40;2.17;;;;;;;;;;5081681;28;20456;-66
2023/03/27 07:42:31;;;;;;;8.90;1.83;;;;;;;;;;5080948;28;20484;-66
2023/03/27 07:44:58;;;;;;;3.90;1.80;;;;;;;;;;5080813;28;20479;-66
2023/03/27 07:47:24;;;;;;;10.93;2.33;;;;;;;;;;5080112;28;21068;-66
2023/03/27 07:49:52;;;;;;;5.20;1.70;;;;;;;;;;5081496;28;20972;-66
2023/03/27 07:52:19;;;;;;;6.40;1.80;;;;;;;;;;5075851;28;20496;-66
2023/03/27 07:54:46;;;;;;;3.67;1.77;;;;;;;;;;5076554;28;20470;-66
2023/03/27 07:57:14;;;;;;;6.90;2.00;;;;;;;;;;5078138;28;20503;-66
2023/03/27 07:59:41;;;;;;;4.27;1.60;;;;;;;;;;5070173;28;21044;-66
2023/03/27 08:02:08;;;;;;;6.27;1.83;;;;;;;;;;5078634;28;20503;-66
2023/03/27 08:04:35;;;;;;;11.33;2.07;;;;;;;;;;5081198;28;20460;-66
2023/03/27 08:07:03;;;;;;;7.33;1.77;;;;;;;;;;5080154;28;20479;-66
2023/03/27 08:09:29;;;;;;;7.10;1.87;;;;;;;;;;5080852;28;20456;-66
2023/03/27 08:11:57;;;;;;;4.07;1.60;;;;;;;;;;5080583;28;20479;-66
2023/03/27 08:14:25;;;;;;;7.37;2.30;;;;;;;;;;5079997;28;20478;-66
2023/03/27 08:16:51;;;;;;;2.93;1.60;;;;;;;;;;5073485;28;20488;-66
2023/03/27 08:19:20;;;;;;;5.30;1.50;;;;;;;;;;5080858;28;20448;-66
2023/03/27 08:21:46;;;;;;;4.97;1.97;;;;;;;;;;5079937;28;20563;-66
2023/03/27 08:24:14;;;;;;;3.87;1.80;;;;;;;;;;5080727;28;20455;-66
2023/03/27 08:26:40;;;;;;;5.37;2.33;;;;;;;;;;5080382;28;20515;-66
2023/03/27 08:29:07;;;;;;;7.13;2.20;;;;;;;;;;5081187;28;20499;-66
2023/03/27 08:31:34;;;;;;;4.73;1.40;;;;;;;;;;5077031;28;20498;-65
2023/03/27 08:34:00;;;;;;;6.17;2.00;;;;;;;;;;5081020;28;20680;-65
2023/03/27 08:36:27;;;;;;;7.60;2.27;;;;;;;;;;5080572;28;20555;-66
2023/03/27 08:38:54;;;;;;;10.87;2.20;;;;;;;;;;5080182;28;20459;-66
2023/03/27 08:41:37;;;;;;;4.30;1.87;;;;;;;;;;5079661;28;20534;-65
2023/03/27 08:44:08;;;;;;;4.63;1.37;;;;;;;;;;5076780;28;20449;-66
2023/03/27 08:46:38;;;;;;;5.37;1.57;;;;;;;;;;5075719;28;20616;-66
2023/03/27 08:49:06;;;;;;;7.80;2.13;;;;;;;;;;5081211;28;20457;-65
2023/03/27 08:51:34;;;;;;;7.17;1.60;;;;;;;;;;5081296;28;20472;-66
2023/03/27 08:54:05;;;;;;;5.63;1.80;;;;;;;;;;5079857;28;20448;-65
2023/03/27 08:56:31;;;;;;;3.90;1.53;;;;;;;;;;5080187;28;21004;-66
2023/03/27 08:58:58;;;;;;;4.50;1.43;;;;;;;;;;5079718;28;20495;-66
2023/03/27 09:01:29;;;;;;;4.47;1.60;;;;;;;;;;5077960;28;20494;-66
2023/03/27 09:04:00;;;;;;;4.73;1.40;;;;;;;;;;5080803;28;20547;-66
2023/03/27 09:06:27;;;;;;;4.53;1.57;;;;;;;;;;5080183;28;20486;-66
2023/03/27 09:08:58;;;;;;;3.80;1.60;;;;;;;;;;5080011;28;20471;-66
2023/03/27 09:11:30;;;;;;;4.43;1.50;;;;;;;;;;5077997;28;20464;-66
2023/03/27 09:13:56;;;;;;;5.60;1.30;;;;;;;;;;5080153;28;20464;-66
2023/03/27 09:16:26;;;;;;;3.20;1.10;;;;;;;;;;5077759;28;20480;-66
2023/03/27 09:18:57;;;;;;;1.57;1.03;;;;;;;;;;5081582;28;20496;-66
2023/03/27 09:21:27;;;;;;;2.80;1.30;;;;;;;;;;5079699;28;20522;-66
2023/03/27 09:23:56;;;;;;;2.97;1.00;;;;;;;;;;5073962;28;20452;-66
2023/03/27 09:26:25;;;;;;;2.53;0.93;;;;;;;;;;5079549;28;20480;-66
2023/03/27 09:28:55;;;;;;;2.57;1.30;;;;;;;;;;5080574;28;20496;-66
2023/03/27 09:31:25;;;;;;;6.50;1.33;;;;;;;;;;5078141;28;21062;-66
2023/03/27 09:33:51;;;;;;;5.27;1.67;;;;;;;;;;5078947;28;20443;-66
2023/03/27 09:36:20;;;;;;;2.57;1.00;;;;;;;;;;5080543;28;20543;-66
2023/03/27 09:38:49;;;;;;;2.03;0.70;;;;;;;;;;5079418;28;21051;-67
2023/03/27 09:41:18;;;;;;;7.07;1.10;;;;;;;;;;5079504;28;20938;-66
2023/03/27 09:43:45;;;;;;;3.77;1.07;;;;;;;;;;5078658;28;20471;-66
2023/03/27 09:46:16;;;;;;;2.30;1.07;;;;;;;;;;5078019;28;20456;-66
2023/03/27 09:48:49;;;;;;;3.80;0.90;;;;;;;;;;5079870;28;20451;-66
2023/03/27 09:51:33;;;;;;;3.13;0.90;;;;;;;;;;5080015;28;20486;-65
2023/03/27 09:54:01;;;;;;;2.73;0.90;;;;;;;;;;5066531;28;20468;-66
2023/03/27 09:56:28;;;;;;;4.13;1.20;;;;;;;;;;5071574;28;20456;-66
2023/03/27 09:58:56;;;;;;;4.00;1.00;;;;;;;;;;5077921;28;20460;-66
2023/03/27 10:01:28;;;;;;;3.90;1.47;;;;;;;;;;5078978;28;20513;-66
2023/03/27 10:03:55;;;;;;;6.70;1.70;;;;;;;;;;5077718;28;20448;-65
2023/03/27 10:06:26;;;;;;;2.67;0.90;;;;;;;;;;5076616;28;20787;-65
2023/03/27 10:08:54;;;;;;;4.40;0.97;;;;;;;;;;5079139;28;21143;-66
2023/03/27 10:11:23;;;;;;;3.17;1.07;;;;;;;;;;5078972;28;20460;-66
2023/03/27 10:13:50;;;;;;;2.40;1.07;;;;;;;;;;5078208;28;20471;-66
2023/03/27 10:16:17;;;;;;;3.77;1.13;;;;;;;;;;5078209;28;20445;-66
2023/03/27 10:18:45;;;;;;;3.20;1.23;;;;;;;;;;5078653;28;20460;-66
2023/03/27 10:21:16;;;;;;;3.13;1.23;;;;;;;;;;5078143;28;20499;-66
2023/03/27 10:23:43;;;;;;;4.03;1.27;;;;;;;;;;5081671;28;20460;-66
2023/03/27 10:26:11;;;;;;;4.10;1.40;;;;;;;;;;5080075;28;20618;-66
2023/03/27 10:28:44;;;;;;;5.33;1.10;;;;;;;;;;5078304;28;20483;-67
2023/03/27 10:31:26;;;;;;;2.40;1.13;;;;;;;;;;5072130;28;20455;-66
2023/03/27 10:33:53;;;;;;;1.47;0.60;;;;;;;;;;5077934;28;20979;-66
2023/03/27 10:36:20;;;;;;;5.27;1.17;;;;;;;;;;5076712;28;20455;-66
2023/03/27 10:38:51;;;;;;;4.63;1.27;;;;;;;;;;5078320;28;20460;-66
2023/03/27 10:41:18;;;;;;;6.00;1.33;;;;;;;;;;5082364;28;20458;-67
2023/03/27 10:43:46;;;;;;;5.30;1.40;;;;;;;;;;5083042;28;20806;-66
2023/03/27 10:46:14;;;;;;;3.30;0.93;;;;;;;;;;5086634;28;20459;-66
2023/03/27 10:48:46;;;;;;;3.73;1.37;;;;;;;;;;5085439;28;20444;-66
2023/03/27 10:51:16;;;;;;;4.30;2.30;;;;;;;;;;5078681;28;20463;-67
2023/03/27 10:53:47;;;;;;;2.27;1.27;;;;;;;;;;5080560;28;20470;-67
2023/03/27 10:56:17;;;;;;;3.63;1.07;;;;;;;;;;5079868;28;20488;-67
2023/03/27 10:58:47;;;;;;;4.53;1.47;;;;;;;;;;5077084;28;20456;-67
2023/03/27 11:01:17;;;;;;;3.10;1.20;;;;;;;;;;5079791;28;21051;-67
2023/03/27 11:03:47;;;;;;;3.90;1.57;;;;;;;;;;5080894;28;20547;-66
2023/03/27 11:06:15;;;;;;;2.30;1.10;;;;;;;;;;5077802;28;20452;-66
2023/03/27 11:08:48;;;;;;;2.73;0.93;;;;;;;;;;5079759;28;20476;-66
2023/03/27 11:11:18;;;;;;;1.90;1.10;;;;;;;;;;5078639;28;20509;-66
2023/03/27 11:13:46;;;;;;;3.03;1.20;;;;;;;;;;5078370;28;20492;-66
2023/03/27 11:16:15;;;;;;;5.80;1.50;;;;;;;;;;5078907;28;20460;-66
2023/03/27 11:18:45;;;;;;;3.07;1.07;;;;;;;;;;5079329;28;20464;-66
2023/03/27 11:21:15;;;;;;;2.87;1.50;;;;;;;;;;5078135;28;20491;-66
2023/03/27 11:23:45;;;;;;;2.30;1.13;;;;;;;;;;5077179;28;20491;-66
2023/03/27 11:26:14;;;;;;;3.30;1.00;;;;;;;;;;5074791;28;20466;-67
2023/03/27 11:28:45;;;;;;;3.53;1.40;;;;;;;;;;5076809;28;20452;-65
2023/03/27 11:31:16;;;;;;;1.30;0.77;;;;;;;;;;5077204;28;20453;-66
2023/03/27 11:33:45;;;;;;;5.43;1.67;;;;;;;;;;5079795;28;20472;-65
2023/03/27 11:36:16;;;;;;;5.30;1.93;;;;;;;;;;5082210;28;20476;-66
2023/03/27 11:38:46;;;;;;;7.83;1.83;;;;;;;;;;5081082;28;20483;-66
2023/03/27 11:41:14;;;;;;;3.23;1.27;;;;;;;;;;5082458;28;20460;-66
2023/03/27 11:43:40;;;;;;;5.60;1.30;;;;;;;;;;5081348;28;21012;-66
2023/03/27 11:46:15;;;;;;;2.83;1.43;;;;;;;;;;5081358;28;20539;-65
2023/03/27 11:48:56;;;;;;;9.60;1.60;;;;;;;;;;5080683;28;20524;-66
2023/03/27 11:51:29;;;;;;;2.00;1.00;;;;;;;;;;5074436;28;20460;-66
2023/03/27 11:54:05;;;;;;;7.10;1.27;;;;;;;;;;5081803;28;20467;-66
2023/03/27 11:56:38;;;;;;;4.77;1.13;;;;;;;;;;5077115;28;20479;-66
2023/03/27 11:59:12;;;;;;;2.40;0.97;;;;;;;;;;5077865;28;20468;-67
2023/03/27 12:01:42;;;;;;;5.20;1.30;;;;;;;;;;5078365;28;20511;-66
2023/03/27 12:04:20;;;;;;;2.40;0.80;;;;;;;;;;5079430;28;20484;-66
2023/03/27 12:06:49;;;;;;;4.10;1.40;;;;;;;;;;5080096;28;20464;-66
2023/03/27 12:09:34;;;;;;;1.50;0.90;;;;;;;;;;5081083;28;20489;-66
2023/03/27 12:12:11;;;;;;;2.60;0.80;;;;;;;;;;5080274;28;20526;-67
2023/03/27 12:14:44;;;;;;;5.00;1.33;;;;;;;;;;5080401;28;20471;-67
2023/03/27 12:17:24;;;;;;;3.53;1.17;;;;;;;;;;5079864;28;20552;-66
2023/03/27 12:20:09;;;;;;;5.87;1.13;;;;;;;;;;5079990;28;20451;-66
2023/03/27 12:22:43;;;;;;;2.60;0.80;;;;;;;;;;5070149;28;20488;-66
2023/03/27 12:25:26;;;;;;;5.43;1.30;;;;;;;;;;5079921;28;21014;-66
2023/03/27 12:27:58;;;;;;;2.80;1.37;;;;;;;;;;5081007;28;20522;-66
2023/03/27 12:30:27;;;;;;;1.87;0.80;;;;;;;;;;5081155;28;20447;-66
2023/03/27 12:33:06;;;;;;;4.63;1.30;;;;;;;;;;5080353;28;20486;-66
2023/03/27 12:35:36;;;;;;;4.23;0.60;;;;;;;;;;5080920;28;20503;-66
2023/03/27 12:38:05;;;;;;;1.23;0.63;;;;;;;;;;5080625;28;20467;-67
2023/03/27 12:40:33;;;;;;;1.47;0.80;;;;;;;;;;5081718;28;20483;-66
2023/03/27 12:43:05;;;;;;;2.57;0.80;;;;;;;;;;5080064;28;20911;-66
2023/03/27 12:45:31;;;;;;;2.13;0.87;;;;;;;;;;5080626;28;20471;-66
2023/03/27 12:48:08;;;;;;;2.67;1.07;;;;;;;;;;5079602;28;21024;-66
2023/03/27 12:50:40;;;;;;;1.43;0.80;;;;;;;;;;5079704;28;20462;-66
2023/03/27 12:53:18;;;;;;;2.57;1.13;;;;;;;;;;5079795;28;20532;-65
2023/03/27 12:55:44;;;;;;;3.43;1.23;;;;;;;;;;5079394;28;20863;-66
2023/03/27 12:58:12;;;;;;;2.20;0.70;;;;;;;;;;5078508;28;20455;-66
2023/03/27 13:00:39;;;;;;;3.50;0.90;;;;;;;;;;5079950;28;20461;-66
2023/03/27 13:03:20;;;;;;;1.63;0.90;;;;;;;;;;5077140;28;20488;-66
2023/03/27 13:05:56;;;;;;;6.40;1.23;;;;;;;;;;5058253;28;20463;-67
2023/03/27 13:08:31;;;;;;;2.90;0.73;;;;;;;;;;5077249;28;21027;-66
2023/03/27 13:10:58;;;;;;;1.57;0.80;;;;;;;;;;5078571;28;20455;-66
2023/03/27 13:13:44;;;;;;;3.80;1.03;;;;;;;;;;5078976;28;20476;-66
2023/03/27 13:16:17;;;;;;;5.00;1.00;;;;;;;;;;5077032;28;20488;-66
2023/03/27 13:18:58;;;;;;;3.73;1.00;;;;;;;;;;5079086;28;20461;-67
2023/03/27 13:21:32;;;;;;;3.83;1.70;;;;;;;;;;5069996;28;21016;-67
2023/03/27 13:24:08;;;;;;;2.93;0.93;;;;;;;;;;5079291;28;20556;-67
2023/03/27 13:26:43;;;;;;;3.90;1.10;;;;;;;;;;5072481;28;20957;-66
2023/03/27 13:29:14;;;;;;;2.47;0.90;;;;;;;;;;5078892;28;20483;-67
2023/03/27 13:31:55;;;;;;;2.83;1.00;;;;;;;;;;5079617;28;20467;-66
2023/03/27 13:34:28;;;;;;;1.53;0.90;;;;;;;;;;5075069;28;20464;-67
2023/03/27 13:37:05;;;;;;;1.53;0.80;;;;;;;;;;5079733;28;20852;-67
2023/03/27 13:39:40;;;;;;;2.20;1.00;;;;;;;;;;5079114;28;20452;-66
2023/03/27 13:42:08;;;;;;;5.17;1.10;;;;;;;;;;5073407;28;20456;-67
2023/03/27 13:44:45;;;;;;;0.80;0.60;;;;;;;;;;5080268;28;20805;-66
2023/03/27 13:47:27;;;;;;;0.87;0.57;;;;;;;;;;5078230;28;20463;-66
2023/03/27 13:50:10;;;;;;;2.83;0.87;;;;;;;;;;5075473;28;20460;-66
2023/03/27 13:53:06;;;;;;;0.90;0.70;;;;;;;;;;5078373;28;20444;-66
2023/03/27 13:55:48;;;;;;;3.20;0.90;;;;;;;;;;5077752;28;20462;-66
2023/03/27 13:58:33;;;;;;;1.70;0.80;;;;;;;;;;5073484;28;21045;-65
2023/03/27 14:01:24;;;;;;;6.93;1.23;;;;;;;;;;5075893;28;20920;-67
2023/03/27 14:04:08;;;;;;;3.80;0.70;;;;;;;;;;5057856;28;21385;-66
2023/03/27 14:06:53;;;;;;;3.27;1.10;;;;;;;;;;5058262;28;20990;-66
2023/03/27 14:09:25;;;;;;;1.90;0.87;;;;;;;;;;5059606;28;20517;-66
2023/03/27 14:11:57;;;;;;;1.97;1.10;;;;;;;;;;5063134;28;20449;-67
2023/03/27 14:14:35;;;;;;;1.37;0.80;;;;;;;;;;5060644;28;20477;-67
2023/03/27 14:17:09;;;;;;;1.63;1.13;;;;;;;;;;5062328;28;20457;-66
2023/03/27 14:19:47;;;;;;;1.57;1.20;;;;;;;;;;5057291;28;20461;-66
2023/03/27 14:22:15;;;;;;;1.63;1.10;;;;;;;;;;5059359;28;20483;-66
2023/03/27 14:24:44;;;;;;;2.70;1.00;;;;;;;;;;5059576;28;20474;-66
2023/03/27 14:27:16;;;;;;;1.90;0.93;;;;;;;;;;5064206;28;20473;-66
2023/03/27 14:29:43;;;;;;;5.90;1.20;;;;;;;;;;5057470;28;20521;-66
2023/03/27 14:32:13;;;;;;;3.10;1.30;;;;;;;;;;5058971;28;20484;-66
2023/03/27 14:34:45;;;;;;;2.40;1.10;;;;;;;;;;5046870;28;20528;-67
2023/03/27 14:37:21;;;;;;;5.47;1.70;;;;;;;;;;5060489;28;20468;-67
2023/03/27 14:39:52;;;;;;;2.50;1.17;;;;;;;;;;5066799;28;20463;-66
2023/03/27 14:42:20;;;;;;;2.43;1.13;;;;;;;;;;5066222;28;20461;-66
2023/03/27 14:44:47;;;;;;;1.23;1.07;;;;;;;;;;5057986;28;20540;-67
2023/03/27 14:47:16;;;;;;;4.90;1.47;;;;;;;;;;5059629;28;20492;-66
2023/03/27 14:49:45;;;;;;;4.80;1.60;;;;;;;;;;5059741;28;20532;-67
2023/03/27 14:52:20;;;;;;;2.03;1.00;;;;;;;;;;5058134;28;20488;-67
2023/03/27 14:54:47;;;;;;;1.87;1.13;;;;;;;;;;5058960;28;20527;-66
2023/03/27 14:57:14;;;;;;;1.90;1.03;;;;;;;;;;5057862;28;20484;-66